sensor_id;sensor_type;location;lat;lon;timestamp;P1;durP1;ratioP1;P2;durP2;ratioP2
47519;SDS011;33252;48.122;11.538;2023-12-20T00:00:22;3.40;;;1.40;;
47519;SDS011;33252;48.122;11.538;2023-12-20T00:02:47;3.55;;;1.60;;
47519;SDS011;33252;48.122;11.538;2023-12-20T00:05:13;3.20;;;1.40;;
47519;SDS011;33252;48.122;11.538;2023-12-20T00:07:39;2.28;;;1.35;;
47519;SDS011;33252;48.122;11.538;2023-12-20T00:10:05;3.33;;;1.48;;
47519;SDS011;33252;48.122;11.538;2023-12-20T00:12:31;2.70;;;1.30;;
47519;SDS011;33252;48.122;11.538;2023-12-20T00:14:56;2.35;;;1.52;;
47519;SDS011;33252;48.122;11.538;2023-12-20T00:17:22;2.80;;;1.42;;
47519;SDS011;33252;48.122;11.538;2023-12-20T00:19:48;3.58;;;1.70;;
47519;SDS011;33252;48.122;11.538;2023-12-20T00:22:13;3.05;;;1.65;;
47519;SDS011;33252;48.122;11.538;2023-12-20T00:24:39;4.35;;;1.52;;
47519;SDS011;33252;48.122;11.538;2023-12-20T00:27:04;2.15;;;1.48;;
47519;SDS011;33252;48.122;11.538;2023-12-20T00:29:30;2.00;;;1.23;;
47519;SDS011;33252;48.122;11.538;2023-12-20T00:31:55;5.05;;;1.40;;
47519;SDS011;33252;48.122;11.538;2023-12-20T00:34:21;2.17;;;1.50;;
47519;SDS011;33252;48.122;11.538;2023-12-20T00:36:46;3.08;;;1.15;;
47519;SDS011;33252;48.122;11.538;2023-12-20T00:39:12;4.53;;;1.60;;
47519;SDS011;33252;48.122;11.538;2023-12-20T00:41:37;2.83;;;1.30;;
47519;SDS011;33252;48.122;11.538;2023-12-20T00:44:03;1.60;;;1.20;;
47519;SDS011;33252;48.122;11.538;2023-12-20T00:46:29;2.17;;;0.98;;
47519;SDS011;33252;48.122;11.538;2023-12-20T00:48:55;1.30;;;0.80;;
47519;SDS011;33252;48.122;11.538;2023-12-20T00:51:20;1.95;;;0.80;;
47519;SDS011;33252;48.122;11.538;2023-12-20T00:53:47;1.80;;;0.98;;
47519;SDS011;33252;48.122;11.538;2023-12-20T00:56:14;2.00;;;0.75;;
47519;SDS011;33252;48.122;11.538;2023-12-20T00:58:39;2.55;;;0.77;;
47519;SDS011;33252;48.122;11.538;2023-12-20T01:01:05;1.73;;;0.90;;
47519;SDS011;33252;48.122;11.538;2023-12-20T01:03:30;2.78;;;0.90;;
47519;SDS011;33252;48.122;11.538;2023-12-20T01:05:56;3.03;;;0.93;;
47519;SDS011;33252;48.122;11.538;2023-12-20T01:08:22;1.45;;;0.90;;
47519;SDS011;33252;48.122;11.538;2023-12-20T01:10:47;1.63;;;0.90;;
47519;SDS011;33252;48.122;11.538;2023-12-20T01:13:13;3.30;;;1.02;;
47519;SDS011;33252;48.122;11.538;2023-12-20T01:15:39;1.80;;;0.82;;
47519;SDS011;33252;48.122;11.538;2023-12-20T01:18:04;1.17;;;0.70;;
47519;SDS011;33252;48.122;11.538;2023-12-20T01:20:30;2.53;;;0.93;;
47519;SDS011;33252;48.122;11.538;2023-12-20T01:22:55;2.42;;;1.00;;
47519;SDS011;33252;48.122;11.538;2023-12-20T01:25:21;1.73;;;0.73;;
47519;SDS011;33252;48.122;11.538;2023-12-20T01:27:46;2.10;;;0.93;;
47519;SDS011;33252;48.122;11.538;2023-12-20T01:30:12;1.70;;;0.65;;
47519;SDS011;33252;48.122;11.538;2023-12-20T01:32:37;5.22;;;1.77;;
47519;SDS011;33252;48.122;11.538;2023-12-20T01:35:03;1.65;;;0.88;;
47519;SDS011;33252;48.122;11.538;2023-12-20T01:37:29;2.33;;;0.93;;
47519;SDS011;33252;48.122;11.538;2023-12-20T01:39:54;1.20;;;0.52;;
47519;SDS011;33252;48.122;11.538;2023-12-20T01:42:20;1.40;;;0.90;;
47519;SDS011;33252;48.122;11.538;2023-12-20T01:44:45;2.55;;;1.00;;
47519;SDS011;33252;48.122;11.538;2023-12-20T01:47:12;1.80;;;0.70;;
47519;SDS011;33252;48.122;11.538;2023-12-20T01:49:38;1.40;;;0.60;;
47519;SDS011;33252;48.122;11.538;2023-12-20T01:52:04;1.42;;;0.50;;
47519;SDS011;33252;48.122;11.538;2023-12-20T01:54:31;2.35;;;0.93;;
47519;SDS011;33252;48.122;11.538;2023-12-20T01:56:56;0.90;;;0.60;;
47519;SDS011;33252;48.122;11.538;2023-12-20T01:59:22;2.00;;;0.70;;
47519;SDS011;33252;48.122;11.538;2023-12-20T02:01:48;1.98;;;0.70;;
47519;SDS011;33252;48.122;11.538;2023-12-20T02:04:13;1.95;;;0.75;;
47519;SDS011;33252;48.122;11.538;2023-12-20T02:06:40;1.20;;;0.50;;
47519;SDS011;33252;48.122;11.538;2023-12-20T02:09:05;1.23;;;0.52;;
47519;SDS011;33252;48.122;11.538;2023-12-20T02:11:32;1.52;;;0.60;;
47519;SDS011;33252;48.122;11.538;2023-12-20T02:13:58;1.67;;;0.70;;
47519;SDS011;33252;48.122;11.538;2023-12-20T02:16:24;0.60;;;0.40;;
47519;SDS011;33252;48.122;11.538;2023-12-20T02:18:49;2.25;;;0.55;;
47519;SDS011;33252;48.122;11.538;2023-12-20T02:21:15;1.10;;;0.50;;
47519;SDS011;33252;48.122;11.538;2023-12-20T02:23:40;1.17;;;0.50;;
47519;SDS011;33252;48.122;11.538;2023-12-20T02:26:06;1.38;;;0.40;;
47519;SDS011;33252;48.122;11.538;2023-12-20T02:28:32;0.75;;;0.30;;
47519;SDS011;33252;48.122;11.538;2023-12-20T02:30:58;1.17;;;0.35;;
47519;SDS011;33252;48.122;11.538;2023-12-20T02:33:24;1.23;;;0.35;;
47519;SDS011;33252;48.122;11.538;2023-12-20T02:35:49;1.30;;;0.50;;
47519;SDS011;33252;48.122;11.538;2023-12-20T02:38:15;0.45;;;0.20;;
47519;SDS011;33252;48.122;11.538;2023-12-20T02:40:40;0.25;;;0.20;;
47519;SDS011;33252;48.122;11.538;2023-12-20T02:43:06;0.40;;;0.20;;
47519;SDS011;33252;48.122;11.538;2023-12-20T02:45:31;0.90;;;0.30;;
47519;SDS011;33252;48.122;11.538;2023-12-20T02:47:57;0.88;;;0.35;;
47519;SDS011;33252;48.122;11.538;2023-12-20T02:50:22;0.40;;;0.20;;
47519;SDS011;33252;48.122;11.538;2023-12-20T02:52:48;0.40;;;0.25;;
47519;SDS011;33252;48.122;11.538;2023-12-20T02:55:13;1.02;;;0.30;;
47519;SDS011;33252;48.122;11.538;2023-12-20T02:57:39;0.52;;;0.35;;
47519;SDS011;33252;48.122;11.538;2023-12-20T03:00:08;0.28;;;0.10;;
47519;SDS011;33252;48.122;11.538;2023-12-20T03:02:35;0.50;;;0.20;;
47519;SDS011;33252;48.122;11.538;2023-12-20T03:05:01;1.00;;;0.30;;
47519;SDS011;33252;48.122;11.538;2023-12-20T03:07:27;0.98;;;0.20;;
47519;SDS011;33252;48.122;11.538;2023-12-20T03:09:52;0.57;;;0.30;;
47519;SDS011;33252;48.122;11.538;2023-12-20T03:12:18;0.57;;;0.25;;
47519;SDS011;33252;48.122;11.538;2023-12-20T03:14:43;1.90;;;0.50;;
47519;SDS011;33252;48.122;11.538;2023-12-20T03:17:09;1.95;;;0.30;;
47519;SDS011;33252;48.122;11.538;2023-12-20T03:19:35;0.90;;;0.30;;
47519;SDS011;33252;48.122;11.538;2023-12-20T03:22:00;0.88;;;0.32;;
47519;SDS011;33252;48.122;11.538;2023-12-20T03:24:26;0.32;;;0.20;;
47519;SDS011;33252;48.122;11.538;2023-12-20T03:26:52;1.15;;;0.30;;
47519;SDS011;33252;48.122;11.538;2023-12-20T03:29:18;0.40;;;0.20;;
47519;SDS011;33252;48.122;11.538;2023-12-20T03:31:43;0.45;;;0.20;;
47519;SDS011;33252;48.122;11.538;2023-12-20T03:34:09;0.80;;;0.20;;
47519;SDS011;33252;48.122;11.538;2023-12-20T03:36:35;3.78;;;0.38;;
47519;SDS011;33252;48.122;11.538;2023-12-20T03:39:01;1.13;;;0.40;;
47519;SDS011;33252;48.122;11.538;2023-12-20T03:41:26;0.65;;;0.30;;
47519;SDS011;33252;48.122;11.538;2023-12-20T03:43:52;0.40;;;0.20;;
47519;SDS011;33252;48.122;11.538;2023-12-20T03:46:17;2.95;;;0.30;;
47519;SDS011;33252;48.122;11.538;2023-12-20T03:48:43;0.45;;;0.20;;
47519;SDS011;33252;48.122;11.538;2023-12-20T03:51:08;0.45;;;0.20;;
47519;SDS011;33252;48.122;11.538;2023-12-20T03:53:34;0.55;;;0.20;;
47519;SDS011;33252;48.122;11.538;2023-12-20T03:55:59;1.13;;;0.30;;
47519;SDS011;33252;48.122;11.538;2023-12-20T03:58:25;0.40;;;0.10;;
47519;SDS011;33252;48.122;11.538;2023-12-20T04:00:50;1.80;;;0.20;;
47519;SDS011;33252;48.122;11.538;2023-12-20T04:03:16;0.50;;;0.20;;
47519;SDS011;33252;48.122;11.538;2023-12-20T04:05:41;0.57;;;0.28;;
47519;SDS011;33252;48.122;11.538;2023-12-20T04:08:07;0.93;;;0.60;;
47519;SDS011;33252;48.122;11.538;2023-12-20T04:10:32;0.60;;;0.30;;
47519;SDS011;33252;48.122;11.538;2023-12-20T04:12:58;3.08;;;0.30;;
47519;SDS011;33252;48.122;11.538;2023-12-20T04:15:23;0.28;;;0.20;;
47519;SDS011;33252;48.122;11.538;2023-12-20T04:17:49;0.40;;;0.20;;
47519;SDS011;33252;48.122;11.538;2023-12-20T04:20:14;0.40;;;0.20;;
47519;SDS011;33252;48.122;11.538;2023-12-20T04:22:40;0.77;;;0.30;;
47519;SDS011;33252;48.122;11.538;2023-12-20T04:25:05;1.15;;;0.40;;
47519;SDS011;33252;48.122;11.538;2023-12-20T04:27:31;0.32;;;0.17;;
47519;SDS011;33252;48.122;11.538;2023-12-20T04:29:56;0.80;;;0.30;;
47519;SDS011;33252;48.122;11.538;2023-12-20T04:32:22;0.77;;;0.40;;
47519;SDS011;33252;48.122;11.538;2023-12-20T04:34:48;0.70;;;0.22;;
47519;SDS011;33252;48.122;11.538;2023-12-20T04:37:13;0.40;;;0.20;;
47519;SDS011;33252;48.122;11.538;2023-12-20T04:39:39;1.40;;;0.22;;
47519;SDS011;33252;48.122;11.538;2023-12-20T04:42:06;0.88;;;0.22;;
47519;SDS011;33252;48.122;11.538;2023-12-20T04:44:31;0.40;;;0.38;;
47519;SDS011;33252;48.122;11.538;2023-12-20T04:46:57;0.40;;;0.20;;
47519;SDS011;33252;48.122;11.538;2023-12-20T04:49:22;0.70;;;0.30;;
47519;SDS011;33252;48.122;11.538;2023-12-20T04:51:48;1.60;;;0.47;;
47519;SDS011;33252;48.122;11.538;2023-12-20T04:54:14;0.85;;;0.40;;
47519;SDS011;33252;48.122;11.538;2023-12-20T04:56:39;1.63;;;1.25;;
47519;SDS011;33252;48.122;11.538;2023-12-20T04:59:05;1.20;;;0.60;;
47519;SDS011;33252;48.122;11.538;2023-12-20T05:01:30;1.63;;;0.73;;
47519;SDS011;33252;48.122;11.538;2023-12-20T05:03:56;1.48;;;0.47;;
47519;SDS011;33252;48.122;11.538;2023-12-20T05:06:21;0.52;;;0.43;;
47519;SDS011;33252;48.122;11.538;2023-12-20T05:08:47;1.77;;;0.80;;
47519;SDS011;33252;48.122;11.538;2023-12-20T05:11:12;1.70;;;0.70;;
47519;SDS011;33252;48.122;11.538;2023-12-20T05:13:40;2.67;;;1.00;;
47519;SDS011;33252;48.122;11.538;2023-12-20T05:16:05;2.05;;;0.90;;
47519;SDS011;33252;48.122;11.538;2023-12-20T05:18:31;1.50;;;0.75;;
47519;SDS011;33252;48.122;11.538;2023-12-20T05:20:56;1.98;;;1.02;;
47519;SDS011;33252;48.122;11.538;2023-12-20T05:23:22;2.55;;;1.20;;
47519;SDS011;33252;48.122;11.538;2023-12-20T05:25:48;2.15;;;0.95;;
47519;SDS011;33252;48.122;11.538;2023-12-20T05:28:14;2.53;;;1.13;;
47519;SDS011;33252;48.122;11.538;2023-12-20T05:30:40;2.33;;;1.15;;
47519;SDS011;33252;48.122;11.538;2023-12-20T05:33:05;2.60;;;1.83;;
47519;SDS011;33252;48.122;11.538;2023-12-20T05:35:31;1.75;;;0.80;;
47519;SDS011;33252;48.122;11.538;2023-12-20T05:37:56;2.88;;;1.55;;
47519;SDS011;33252;48.122;11.538;2023-12-20T05:40:22;2.00;;;1.27;;
47519;SDS011;33252;48.122;11.538;2023-12-20T05:42:47;2.50;;;1.30;;
47519;SDS011;33252;48.122;11.538;2023-12-20T05:45:14;2.28;;;1.17;;
47519;SDS011;33252;48.122;11.538;2023-12-20T05:47:40;2.25;;;0.73;;
47519;SDS011;33252;48.122;11.538;2023-12-20T05:50:05;2.33;;;1.05;;
47519;SDS011;33252;48.122;11.538;2023-12-20T05:52:31;1.75;;;1.10;;
47519;SDS011;33252;48.122;11.538;2023-12-20T05:54:57;1.38;;;1.02;;
47519;SDS011;33252;48.122;11.538;2023-12-20T05:57:26;1.20;;;1.10;;
47519;SDS011;33252;48.122;11.538;2023-12-20T05:59:51;2.15;;;1.10;;
47519;SDS011;33252;48.122;11.538;2023-12-20T06:02:17;4.15;;;1.27;;
47519;SDS011;33252;48.122;11.538;2023-12-20T06:04:43;1.52;;;0.90;;
47519;SDS011;33252;48.122;11.538;2023-12-20T06:07:11;1.75;;;1.00;;
47519;SDS011;33252;48.122;11.538;2023-12-20T06:09:37;1.20;;;0.70;;
47519;SDS011;33252;48.122;11.538;2023-12-20T06:12:03;1.48;;;0.95;;
47519;SDS011;33252;48.122;11.538;2023-12-20T06:14:29;2.05;;;0.88;;
47519;SDS011;33252;48.122;11.538;2023-12-20T06:16:55;1.92;;;1.02;;
47519;SDS011;33252;48.122;11.538;2023-12-20T06:19:21;1.45;;;1.02;;
47519;SDS011;33252;48.122;11.538;2023-12-20T06:21:47;1.30;;;0.77;;
47519;SDS011;33252;48.122;11.538;2023-12-20T06:24:12;2.22;;;1.00;;
47519;SDS011;33252;48.122;11.538;2023-12-20T06:26:38;1.77;;;1.05;;
47519;SDS011;33252;48.122;11.538;2023-12-20T06:29:03;2.45;;;1.00;;
47519;SDS011;33252;48.122;11.538;2023-12-20T06:31:29;4.38;;;1.20;;
47519;SDS011;33252;48.122;11.538;2023-12-20T06:33:54;2.35;;;1.23;;
47519;SDS011;33252;48.122;11.538;2023-12-20T06:36:22;2.08;;;0.90;;
47519;SDS011;33252;48.122;11.538;2023-12-20T06:38:49;1.60;;;0.88;;
47519;SDS011;33252;48.122;11.538;2023-12-20T06:41:15;1.95;;;1.00;;
47519;SDS011;33252;48.122;11.538;2023-12-20T06:43:41;1.60;;;0.70;;
47519;SDS011;33252;48.122;11.538;2023-12-20T06:46:07;1.42;;;0.65;;
47519;SDS011;33252;48.122;11.538;2023-12-20T06:48:33;2.15;;;1.00;;
47519;SDS011;33252;48.122;11.538;2023-12-20T06:51:00;2.63;;;0.80;;
47519;SDS011;33252;48.122;11.538;2023-12-20T06:53:27;1.77;;;0.73;;
47519;SDS011;33252;48.122;11.538;2023-12-20T06:55:52;1.20;;;0.45;;
47519;SDS011;33252;48.122;11.538;2023-12-20T06:58:18;2.20;;;0.80;;
47519;SDS011;33252;48.122;11.538;2023-12-20T07:00:43;2.15;;;1.10;;
47519;SDS011;33252;48.122;11.538;2023-12-20T07:03:09;1.73;;;0.80;;
47519;SDS011;33252;48.122;11.538;2023-12-20T07:05:34;1.58;;;0.70;;
47519;SDS011;33252;48.122;11.538;2023-12-20T07:08:00;1.75;;;0.70;;
47519;SDS011;33252;48.122;11.538;2023-12-20T07:10:26;1.13;;;0.43;;
47519;SDS011;33252;48.122;11.538;2023-12-20T07:12:51;3.17;;;0.70;;
47519;SDS011;33252;48.122;11.538;2023-12-20T07:15:17;1.08;;;0.50;;
47519;SDS011;33252;48.122;11.538;2023-12-20T07:17:43;0.73;;;0.40;;
47519;SDS011;33252;48.122;11.538;2023-12-20T07:20:09;1.00;;;0.55;;
47519;SDS011;33252;48.122;11.538;2023-12-20T07:22:35;1.58;;;0.45;;
47519;SDS011;33252;48.122;11.538;2023-12-20T07:25:01;0.60;;;0.22;;
47519;SDS011;33252;48.122;11.538;2023-12-20T07:27:28;0.77;;;0.28;;
47519;SDS011;33252;48.122;11.538;2023-12-20T07:29:54;0.68;;;0.30;;
47519;SDS011;33252;48.122;11.538;2023-12-20T07:32:19;1.80;;;0.50;;
47519;SDS011;33252;48.122;11.538;2023-12-20T07:34:45;1.52;;;0.30;;
47519;SDS011;33252;48.122;11.538;2023-12-20T07:37:10;1.10;;;0.45;;
47519;SDS011;33252;48.122;11.538;2023-12-20T07:39:37;1.27;;;0.50;;
47519;SDS011;33252;48.122;11.538;2023-12-20T07:42:05;0.55;;;0.40;;
47519;SDS011;33252;48.122;11.538;2023-12-20T07:44:30;0.98;;;0.45;;
47519;SDS011;33252;48.122;11.538;2023-12-20T07:46:56;2.17;;;0.40;;
47519;SDS011;33252;48.122;11.538;2023-12-20T07:49:22;0.68;;;0.40;;
47519;SDS011;33252;48.122;11.538;2023-12-20T07:51:48;1.30;;;0.63;;
47519;SDS011;33252;48.122;11.538;2023-12-20T07:54:14;1.20;;;0.40;;
47519;SDS011;33252;48.122;11.538;2023-12-20T07:56:40;0.88;;;0.40;;
47519;SDS011;33252;48.122;11.538;2023-12-20T07:59:06;0.70;;;0.32;;
47519;SDS011;33252;48.122;11.538;2023-12-20T08:01:31;1.05;;;0.50;;
47519;SDS011;33252;48.122;11.538;2023-12-20T08:03:57;0.85;;;0.47;;
47519;SDS011;33252;48.122;11.538;2023-12-20T08:06:22;0.80;;;0.40;;
47519;SDS011;33252;48.122;11.538;2023-12-20T08:08:48;1.15;;;0.80;;
47519;SDS011;33252;48.122;11.538;2023-12-20T08:11:14;0.70;;;0.50;;
47519;SDS011;33252;48.122;11.538;2023-12-20T08:13:39;0.98;;;0.47;;
47519;SDS011;33252;48.122;11.538;2023-12-20T08:16:05;0.90;;;0.47;;
47519;SDS011;33252;48.122;11.538;2023-12-20T08:18:30;0.77;;;0.30;;
47519;SDS011;33252;48.122;11.538;2023-12-20T08:20:56;1.33;;;0.40;;
47519;SDS011;33252;48.122;11.538;2023-12-20T08:23:21;2.80;;;0.65;;
47519;SDS011;33252;48.122;11.538;2023-12-20T08:25:47;0.68;;;0.50;;
47519;SDS011;33252;48.122;11.538;2023-12-20T08:28:13;2.10;;;0.60;;
47519;SDS011;33252;48.122;11.538;2023-12-20T08:30:38;1.05;;;0.47;;
47519;SDS011;33252;48.122;11.538;2023-12-20T08:33:04;2.95;;;0.60;;
47519;SDS011;33252;48.122;11.538;2023-12-20T08:35:32;1.00;;;0.50;;
47519;SDS011;33252;48.122;11.538;2023-12-20T08:37:58;0.65;;;0.60;;
47519;SDS011;33252;48.122;11.538;2023-12-20T08:40:23;0.77;;;0.38;;
47519;SDS011;33252;48.122;11.538;2023-12-20T08:42:49;1.80;;;0.50;;
47519;SDS011;33252;48.122;11.538;2023-12-20T08:45:14;1.02;;;0.40;;
47519;SDS011;33252;48.122;11.538;2023-12-20T08:47:40;0.68;;;0.30;;
47519;SDS011;33252;48.122;11.538;2023-12-20T08:50:06;0.95;;;0.50;;
47519;SDS011;33252;48.122;11.538;2023-12-20T08:52:32;0.90;;;0.40;;
47519;SDS011;33252;48.122;11.538;2023-12-20T08:54:58;0.30;;;0.30;;
47519;SDS011;33252;48.122;11.538;2023-12-20T08:57:23;0.77;;;0.45;;
47519;SDS011;33252;48.122;11.538;2023-12-20T08:59:50;0.98;;;0.40;;
47519;SDS011;33252;48.122;11.538;2023-12-20T09:02:16;1.30;;;0.50;;
47519;SDS011;33252;48.122;11.538;2023-12-20T09:04:42;0.98;;;0.55;;
47519;SDS011;33252;48.122;11.538;2023-12-20T09:07:20;1.30;;;0.30;;
47519;SDS011;33252;48.122;11.538;2023-12-20T09:09:50;1.92;;;0.90;;
47519;SDS011;33252;48.122;11.538;2023-12-20T09:12:17;3.05;;;0.77;;
47519;SDS011;33252;48.122;11.538;2023-12-20T09:14:43;0.98;;;0.47;;
47519;SDS011;33252;48.122;11.538;2023-12-20T09:17:09;0.88;;;0.60;;
47519;SDS011;33252;48.122;11.538;2023-12-20T09:19:36;0.95;;;0.30;;
47519;SDS011;33252;48.122;11.538;2023-12-20T09:22:02;0.70;;;0.38;;
47519;SDS011;33252;48.122;11.538;2023-12-20T09:24:27;0.45;;;0.20;;
47519;SDS011;33252;48.122;11.538;2023-12-20T09:26:53;0.50;;;0.30;;
47519;SDS011;33252;48.122;11.538;2023-12-20T09:29:18;0.52;;;0.22;;
47519;SDS011;33252;48.122;11.538;2023-12-20T09:31:44;1.85;;;0.52;;
47519;SDS011;33252;48.122;11.538;2023-12-20T09:34:11;1.13;;;0.40;;
47519;SDS011;33252;48.122;11.538;2023-12-20T09:36:37;1.10;;;0.43;;
47519;SDS011;33252;48.122;11.538;2023-12-20T09:39:05;0.70;;;0.40;;
47519;SDS011;33252;48.122;11.538;2023-12-20T09:41:31;0.93;;;0.43;;
47519;SDS011;33252;48.122;11.538;2023-12-20T09:44:02;0.85;;;0.47;;
47519;SDS011;33252;48.122;11.538;2023-12-20T09:46:28;1.75;;;0.55;;
47519;SDS011;33252;48.122;11.538;2023-12-20T09:48:59;1.15;;;0.38;;
47519;SDS011;33252;48.122;11.538;2023-12-20T09:51:25;0.32;;;0.28;;
47519;SDS011;33252;48.122;11.538;2023-12-20T09:53:53;0.98;;;0.35;;
47519;SDS011;33252;48.122;11.538;2023-12-20T09:56:19;1.75;;;0.55;;
47519;SDS011;33252;48.122;11.538;2023-12-20T09:58:46;1.00;;;0.35;;
47519;SDS011;33252;48.122;11.538;2023-12-20T10:01:12;1.83;;;0.30;;
47519;SDS011;33252;48.122;11.538;2023-12-20T10:03:39;0.47;;;0.22;;
47519;SDS011;33252;48.122;11.538;2023-12-20T10:06:05;0.82;;;0.50;;
47519;SDS011;33252;48.122;11.538;2023-12-20T10:08:32;0.50;;;0.40;;
47519;SDS011;33252;48.122;11.538;2023-12-20T10:10:57;0.70;;;0.43;;
47519;SDS011;33252;48.122;11.538;2023-12-20T10:13:27;1.27;;;0.65;;
47519;SDS011;33252;48.122;11.538;2023-12-20T10:15:54;1.50;;;0.30;;
47519;SDS011;33252;48.122;11.538;2023-12-20T10:18:20;1.20;;;0.50;;
47519;SDS011;33252;48.122;11.538;2023-12-20T10:20:46;1.05;;;0.35;;
47519;SDS011;33252;48.122;11.538;2023-12-20T10:23:12;1.60;;;0.73;;
47519;SDS011;33252;48.122;11.538;2023-12-20T10:25:38;0.77;;;0.50;;
47519;SDS011;33252;48.122;11.538;2023-12-20T10:28:14;1.08;;;0.40;;
47519;SDS011;33252;48.122;11.538;2023-12-20T10:30:43;1.88;;;0.88;;
47519;SDS011;33252;48.122;11.538;2023-12-20T10:33:09;1.58;;;0.52;;
47519;SDS011;33252;48.122;11.538;2023-12-20T10:35:35;1.85;;;0.40;;
47519;SDS011;33252;48.122;11.538;2023-12-20T10:38:03;1.80;;;0.50;;
47519;SDS011;33252;48.122;11.538;2023-12-20T10:40:30;0.65;;;0.40;;
47519;SDS011;33252;48.122;11.538;2023-12-20T10:42:58;0.65;;;0.38;;
47519;SDS011;33252;48.122;11.538;2023-12-20T10:45:26;1.40;;;0.70;;
47519;SDS011;33252;48.122;11.538;2023-12-20T10:47:51;1.40;;;0.60;;
47519;SDS011;33252;48.122;11.538;2023-12-20T10:50:18;1.00;;;0.40;;
47519;SDS011;33252;48.122;11.538;2023-12-20T10:52:45;2.15;;;0.60;;
47519;SDS011;33252;48.122;11.538;2023-12-20T10:55:12;1.02;;;0.52;;
47519;SDS011;33252;48.122;11.538;2023-12-20T10:57:38;1.05;;;0.50;;
47519;SDS011;33252;48.122;11.538;2023-12-20T11:00:04;1.20;;;0.40;;
47519;SDS011;33252;48.122;11.538;2023-12-20T11:02:35;1.02;;;0.45;;
47519;SDS011;33252;48.122;11.538;2023-12-20T11:05:25;1.73;;;0.60;;
47519;SDS011;33252;48.122;11.538;2023-12-20T11:08:03;1.13;;;0.50;;
47519;SDS011;33252;48.122;11.538;2023-12-20T11:10:51;0.90;;;0.50;;
47519;SDS011;33252;48.122;11.538;2023-12-20T11:13:28;1.10;;;0.47;;
47519;SDS011;33252;48.122;11.538;2023-12-20T11:15:57;1.25;;;0.60;;
47519;SDS011;33252;48.122;11.538;2023-12-20T11:18:29;1.35;;;0.50;;
47519;SDS011;33252;48.122;11.538;2023-12-20T11:20:56;1.55;;;0.70;;
47519;SDS011;33252;48.122;11.538;2023-12-20T11:23:35;1.30;;;0.63;;
47519;SDS011;33252;48.122;11.538;2023-12-20T11:26:01;1.23;;;0.77;;
47519;SDS011;33252;48.122;11.538;2023-12-20T11:28:27;1.90;;;0.82;;
47519;SDS011;33252;48.122;11.538;2023-12-20T11:30:55;2.30;;;0.80;;
47519;SDS011;33252;48.122;11.538;2023-12-20T11:33:26;4.32;;;1.17;;
47519;SDS011;33252;48.122;11.538;2023-12-20T11:35:56;1.42;;;0.98;;
47519;SDS011;33252;48.122;11.538;2023-12-20T11:38:22;1.30;;;0.60;;
47519;SDS011;33252;48.122;11.538;2023-12-20T11:40:49;1.27;;;0.73;;
47519;SDS011;33252;48.122;11.538;2023-12-20T11:43:31;1.15;;;0.93;;
47519;SDS011;33252;48.122;11.538;2023-12-20T11:46:04;1.20;;;0.70;;
47519;SDS011;33252;48.122;11.538;2023-12-20T11:48:37;2.78;;;1.02;;
47519;SDS011;33252;48.122;11.538;2023-12-20T11:51:11;1.42;;;0.73;;
47519;SDS011;33252;48.122;11.538;2023-12-20T11:53:37;2.60;;;1.15;;
47519;SDS011;33252;48.122;11.538;2023-12-20T11:56:09;1.63;;;0.93;;
47519;SDS011;33252;48.122;11.538;2023-12-20T11:58:35;3.50;;;1.23;;
47519;SDS011;33252;48.122;11.538;2023-12-20T12:01:01;2.92;;;1.10;;
47519;SDS011;33252;48.122;11.538;2023-12-20T12:03:29;3.70;;;1.52;;
47519;SDS011;33252;48.122;11.538;2023-12-20T12:05:55;1.33;;;0.65;;
47519;SDS011;33252;48.122;11.538;2023-12-20T12:08:21;3.50;;;0.80;;
47519;SDS011;33252;48.122;11.538;2023-12-20T12:10:46;1.50;;;0.63;;
47519;SDS011;33252;48.122;11.538;2023-12-20T12:13:12;4.07;;;0.90;;
47519;SDS011;33252;48.122;11.538;2023-12-20T12:15:39;5.25;;;1.33;;
47519;SDS011;33252;48.122;11.538;2023-12-20T12:18:06;0.73;;;0.50;;
47519;SDS011;33252;48.122;11.538;2023-12-20T12:20:32;2.28;;;1.02;;
47519;SDS011;33252;48.122;11.538;2023-12-20T12:22:58;1.58;;;0.70;;
47519;SDS011;33252;48.122;11.538;2023-12-20T12:25:25;1.45;;;0.68;;
47519;SDS011;33252;48.122;11.538;2023-12-20T12:27:51;1.90;;;0.75;;
47519;SDS011;33252;48.122;11.538;2023-12-20T12:30:17;1.40;;;0.70;;
47519;SDS011;33252;48.122;11.538;2023-12-20T12:32:43;2.28;;;1.00;;
47519;SDS011;33252;48.122;11.538;2023-12-20T12:35:09;1.30;;;0.65;;
47519;SDS011;33252;48.122;11.538;2023-12-20T12:37:37;0.98;;;0.60;;
47519;SDS011;33252;48.122;11.538;2023-12-20T12:40:09;1.23;;;0.70;;
47519;SDS011;33252;48.122;11.538;2023-12-20T12:42:36;2.60;;;1.33;;
47519;SDS011;33252;48.122;11.538;2023-12-20T12:45:02;3.75;;;0.82;;
47519;SDS011;33252;48.122;11.538;2023-12-20T12:47:28;1.27;;;0.80;;
47519;SDS011;33252;48.122;11.538;2023-12-20T12:49:53;1.30;;;0.65;;
47519;SDS011;33252;48.122;11.538;2023-12-20T12:52:22;1.15;;;0.90;;
47519;SDS011;33252;48.122;11.538;2023-12-20T12:54:48;1.25;;;0.75;;
47519;SDS011;33252;48.122;11.538;2023-12-20T12:57:14;1.27;;;0.75;;
47519;SDS011;33252;48.122;11.538;2023-12-20T12:59:41;1.27;;;0.90;;
47519;SDS011;33252;48.122;11.538;2023-12-20T13:02:07;2.63;;;0.77;;
47519;SDS011;33252;48.122;11.538;2023-12-20T13:04:33;1.40;;;0.70;;
47519;SDS011;33252;48.122;11.538;2023-12-20T13:06:58;2.53;;;1.00;;
47519;SDS011;33252;48.122;11.538;2023-12-20T13:09:24;1.83;;;0.85;;
47519;SDS011;33252;48.122;11.538;2023-12-20T13:11:50;1.80;;;0.90;;
47519;SDS011;33252;48.122;11.538;2023-12-20T13:14:15;2.60;;;0.90;;
47519;SDS011;33252;48.122;11.538;2023-12-20T13:16:41;1.90;;;0.75;;
47519;SDS011;33252;48.122;11.538;2023-12-20T13:19:07;1.50;;;1.00;;
47519;SDS011;33252;48.122;11.538;2023-12-20T13:21:33;1.10;;;0.73;;
47519;SDS011;33252;48.122;11.538;2023-12-20T13:23:58;2.42;;;1.10;;
47519;SDS011;33252;48.122;11.538;2023-12-20T13:26:24;1.88;;;1.00;;
47519;SDS011;33252;48.122;11.538;2023-12-20T13:28:50;1.42;;;0.70;;
47519;SDS011;33252;48.122;11.538;2023-12-20T13:31:15;1.33;;;0.82;;
47519;SDS011;33252;48.122;11.538;2023-12-20T13:33:41;2.47;;;1.25;;
47519;SDS011;33252;48.122;11.538;2023-12-20T13:36:06;3.28;;;1.10;;
47519;SDS011;33252;48.122;11.538;2023-12-20T13:38:32;3.20;;;1.05;;
47519;SDS011;33252;48.122;11.538;2023-12-20T13:40:58;2.28;;;1.20;;
47519;SDS011;33252;48.122;11.538;2023-12-20T13:43:23;6.47;;;1.80;;
47519;SDS011;33252;48.122;11.538;2023-12-20T13:45:49;3.28;;;1.40;;
47519;SDS011;33252;48.122;11.538;2023-12-20T13:48:15;2.67;;;1.42;;
47519;SDS011;33252;48.122;11.538;2023-12-20T13:50:41;3.90;;;2.10;;
47519;SDS011;33252;48.122;11.538;2023-12-20T13:53:07;2.78;;;1.50;;
47519;SDS011;33252;48.122;11.538;2023-12-20T13:55:32;4.38;;;1.52;;
47519;SDS011;33252;48.122;11.538;2023-12-20T13:57:58;3.28;;;1.35;;
47519;SDS011;33252;48.122;11.538;2023-12-20T14:00:23;5.32;;;1.67;;
47519;SDS011;33252;48.122;11.538;2023-12-20T14:02:49;3.15;;;2.55;;
47519;SDS011;33252;48.122;11.538;2023-12-20T14:05:15;6.75;;;1.80;;
47519;SDS011;33252;48.122;11.538;2023-12-20T14:07:42;3.90;;;1.40;;
47519;SDS011;33252;48.122;11.538;2023-12-20T14:10:09;3.20;;;1.85;;
47519;SDS011;33252;48.122;11.538;2023-12-20T14:12:38;3.97;;;1.60;;
47519;SDS011;33252;48.122;11.538;2023-12-20T14:15:04;2.88;;;1.40;;
47519;SDS011;33252;48.122;11.538;2023-12-20T14:17:36;3.72;;;0.80;;
47519;SDS011;33252;48.122;11.538;2023-12-20T14:20:02;1.48;;;0.80;;
47519;SDS011;33252;48.122;11.538;2023-12-20T14:22:28;2.20;;;1.15;;
47519;SDS011;33252;48.122;11.538;2023-12-20T14:24:54;3.58;;;1.20;;
47519;SDS011;33252;48.122;11.538;2023-12-20T14:27:19;2.28;;;0.85;;